sensor_id;sensor_type;location;lat;lon;timestamp;pressure;altitude;pressure_sealevel;temperature;humidity
69570;BME280;56781;42.292;23.146;2023-04-27T00:01:13;95323.38;;;7.58;77.55
69570;BME280;56781;42.292;23.146;2023-04-27T00:03:40;95323.81;;;7.65;77.50
69570;BME280;56781;42.292;23.146;2023-04-27T00:06:08;95287.91;;;7.38;76.13
69570;BME280;56781;42.292;23.146;2023-04-27T00:08:36;95324.56;;;7.46;80.44
69570;BME280;56781;42.292;23.146;2023-04-27T00:11:03;95318.44;;;7.46;80.08
69570;BME280;56781;42.292;23.146;2023-04-27T00:13:30;95316.78;;;7.31;82.02
69570;BME280;56781;42.292;23.146;2023-04-27T00:15:59;95299.13;;;7.11;77.78
69570;BME280;56781;42.292;23.146;2023-04-27T00:18:30;95309.47;;;7.18;78.06
69570;BME280;56781;42.292;23.146;2023-04-27T00:20:57;95304.66;;;7.20;77.01
69570;BME280;56781;42.292;23.146;2023-04-27T00:23:25;95317.97;;;7.20;83.66
69570;BME280;56781;42.292;23.146;2023-04-27T00:25:52;95307.19;;;7.06;80.89
69570;BME280;56781;42.292;23.146;2023-04-27T00:28:19;95306.31;;;7.10;77.63
69570;BME280;56781;42.292;23.146;2023-04-27T00:30:47;95324.84;;;7.21;78.05
69570;BME280;56781;42.292;23.146;2023-04-27T00:33:15;95310.47;;;7.22;74.97
69570;BME280;56781;42.292;23.146;2023-04-27T00:35:43;95325.72;;;7.40;77.71
69570;BME280;56781;42.292;23.146;2023-04-27T00:38:10;95307.84;;;7.41;75.97
69570;BME280;56781;42.292;23.146;2023-04-27T00:40:38;95304.19;;;7.37;75.28
69570;BME280;56781;42.292;23.146;2023-04-27T00:43:05;95305.66;;;7.24;78.35
69570;BME280;56781;42.292;23.146;2023-04-27T00:45:37;95306.63;;;7.09;77.71
69570;BME280;56781;42.292;23.146;2023-04-27T00:48:08;95317.28;;;7.09;75.84
69570;BME280;56781;42.292;23.146;2023-04-27T00:50:36;95332.00;;;7.25;79.25
69570;BME280;56781;42.292;23.146;2023-04-27T00:53:04;95319.53;;;7.21;79.07
69570;BME280;56781;42.292;23.146;2023-04-27T00:55:33;95311.69;;;7.05;78.23
69570;BME280;56781;42.292;23.146;2023-04-27T00:58:00;95313.66;;;6.95;77.31
69570;BME280;56781;42.292;23.146;2023-04-27T01:00:27;95318.47;;;6.98;76.03
69570;BME280;56781;42.292;23.146;2023-04-27T01:02:54;95326.09;;;7.04;76.51
69570;BME280;56781;42.292;23.146;2023-04-27T01:05:24;95310.22;;;6.94;76.80
69570;BME280;56781;42.292;23.146;2023-04-27T01:07:52;95314.94;;;7.02;76.04
69570;BME280;56781;42.292;23.146;2023-04-27T01:10:19;95324.06;;;6.96;80.04
69570;BME280;56781;42.292;23.146;2023-04-27T01:12:46;95327.38;;;6.83;79.09
69570;BME280;56781;42.292;23.146;2023-04-27T01:15:13;95338.38;;;6.71;78.80
69570;BME280;56781;42.292;23.146;2023-04-27T01:17:40;95347.31;;;6.85;79.81
69570;BME280;56781;42.292;23.146;2023-04-27T01:20:09;95332.97;;;6.81;78.22
69570;BME280;56781;42.292;23.146;2023-04-27T01:22:37;95334.81;;;6.81;79.27
69570;BME280;56781;42.292;23.146;2023-04-27T01:25:05;95332.59;;;6.93;77.86
69570;BME280;56781;42.292;23.146;2023-04-27T01:27:33;95339.44;;;6.99;80.02
69570;BME280;56781;42.292;23.146;2023-04-27T01:30:00;95325.03;;;6.76;77.96
69570;BME280;56781;42.292;23.146;2023-04-27T01:32:28;95331.50;;;6.94;79.07
69570;BME280;56781;42.292;23.146;2023-04-27T01:34:55;95324.00;;;7.01;80.53
69570;BME280;56781;42.292;23.146;2023-04-27T01:37:22;95314.81;;;6.88;81.23
69570;BME280;56781;42.292;23.146;2023-04-27T01:39:49;95327.00;;;6.65;85.83
69570;BME280;56781;42.292;23.146;2023-04-27T01:42:16;95343.56;;;6.57;86.22
69570;BME280;56781;42.292;23.146;2023-04-27T01:44:43;95326.50;;;6.58;85.06
69570;BME280;56781;42.292;23.146;2023-04-27T01:47:11;95351.50;;;6.92;83.20
69570;BME280;56781;42.292;23.146;2023-04-27T01:49:38;95357.56;;;6.97;81.75
69570;BME280;56781;42.292;23.146;2023-04-27T01:52:05;95339.41;;;6.75;79.73
69570;BME280;56781;42.292;23.146;2023-04-27T01:54:32;95331.72;;;6.74;79.41
69570;BME280;56781;42.292;23.146;2023-04-27T01:56:59;95330.25;;;6.86;77.23
69570;BME280;56781;42.292;23.146;2023-04-27T01:59:27;95325.09;;;7.00;75.95
69570;BME280;56781;42.292;23.146;2023-04-27T02:01:54;95353.75;;;7.08;72.96
69570;BME280;56781;42.292;23.146;2023-04-27T02:04:22;95352.50;;;7.01;75.67
69570;BME280;56781;42.292;23.146;2023-04-27T02:06:49;95351.13;;;7.03;73.16
69570;BME280;56781;42.292;23.146;2023-04-27T02:09:16;95336.91;;;6.84;69.88
69570;BME280;56781;42.292;23.146;2023-04-27T02:11:44;95349.66;;;6.92;69.81
69570;BME280;56781;42.292;23.146;2023-04-27T02:14:11;95352.63;;;7.15;69.95
69570;BME280;56781;42.292;23.146;2023-04-27T02:16:38;95334.06;;;7.04;69.72
69570;BME280;56781;42.292;23.146;2023-04-27T02:19:05;95332.56;;;6.98;68.40
69570;BME280;56781;42.292;23.146;2023-04-27T02:21:32;95352.16;;;7.07;69.89
69570;BME280;56781;42.292;23.146;2023-04-27T02:24:00;95367.31;;;7.07;71.22
69570;BME280;56781;42.292;23.146;2023-04-27T02:26:27;95361.53;;;7.00;72.56
69570;BME280;56781;42.292;23.146;2023-04-27T02:28:58;95347.16;;;6.72;74.26
69570;BME280;56781;42.292;23.146;2023-04-27T02:31:25;95342.28;;;6.50;74.79
69570;BME280;56781;42.292;23.146;2023-04-27T02:33:53;95360.28;;;6.92;71.55
69570;BME280;56781;42.292;23.146;2023-04-27T02:36:20;95378.63;;;6.94;69.92
69570;BME280;56781;42.292;23.146;2023-04-27T02:38:47;95372.44;;;7.03;68.34
69570;BME280;56781;42.292;23.146;2023-04-27T02:41:14;95360.78;;;6.94;68.59
69570;BME280;56781;42.292;23.146;2023-04-27T02:43:41;95351.25;;;6.88;67.43
69570;BME280;56781;42.292;23.146;2023-04-27T02:46:09;95358.97;;;6.90;68.48
69570;BME280;56781;42.292;23.146;2023-04-27T02:48:36;95371.06;;;6.77;68.19
69570;BME280;56781;42.292;23.146;2023-04-27T02:51:03;95384.13;;;6.73;69.28
69570;BME280;56781;42.292;23.146;2023-04-27T02:53:31;95353.31;;;6.67;68.27
69570;BME280;56781;42.292;23.146;2023-04-27T02:55:58;95356.56;;;6.59;67.02
69570;BME280;56781;42.292;23.146;2023-04-27T02:58:25;95385.47;;;6.71;67.38
69570;BME280;56781;42.292;23.146;2023-04-27T03:00:56;95392.97;;;6.98;67.45
69570;BME280;56781;42.292;23.146;2023-04-27T03:03:23;95393.41;;;6.76;67.48
69570;BME280;56781;42.292;23.146;2023-04-27T03:05:51;95356.59;;;6.54;67.46
69570;BME280;56781;42.292;23.146;2023-04-27T03:08:18;95394.25;;;6.71;71.80
69570;BME280;56781;42.292;23.146;2023-04-27T03:10:45;95346.84;;;6.44;69.40
69570;BME280;56781;42.292;23.146;2023-04-27T03:13:13;95361.94;;;6.49;71.41
69570;BME280;56781;42.292;23.146;2023-04-27T03:15:41;95367.63;;;6.37;72.78
69570;BME280;56781;42.292;23.146;2023-04-27T03:18:08;95378.50;;;6.40;71.19
69570;BME280;56781;42.292;23.146;2023-04-27T03:20:36;95389.06;;;6.51;70.69
69570;BME280;56781;42.292;23.146;2023-04-27T03:23:03;95396.03;;;6.47;70.48
69570;BME280;56781;42.292;23.146;2023-04-27T03:25:30;95404.31;;;6.35;70.34
69570;BME280;56781;42.292;23.146;2023-04-27T03:27:57;95390.59;;;6.22;71.95
69570;BME280;56781;42.292;23.146;2023-04-27T03:30:24;95403.19;;;6.02;77.65
69570;BME280;56781;42.292;23.146;2023-04-27T03:32:52;95374.03;;;5.81;76.65
69570;BME280;56781;42.292;23.146;2023-04-27T03:35:19;95402.66;;;5.99;80.78
69570;BME280;56781;42.292;23.146;2023-04-27T03:37:46;95384.41;;;5.77;78.94
69570;BME280;56781;42.292;23.146;2023-04-27T03:40:13;95399.22;;;5.94;74.25
69570;BME280;56781;42.292;23.146;2023-04-27T03:42:41;95413.00;;;6.06;75.95
69570;BME280;56781;42.292;23.146;2023-04-27T03:45:08;95393.59;;;6.11;75.41
69570;BME280;56781;42.292;23.146;2023-04-27T03:47:38;95403.06;;;6.27;70.41
69570;BME280;56781;42.292;23.146;2023-04-27T03:50:05;95389.84;;;6.12;68.65
69570;BME280;56781;42.292;23.146;2023-04-27T03:52:32;95418.75;;;6.24;72.34
69570;BME280;56781;42.292;23.146;2023-04-27T03:55:00;95405.06;;;6.01;70.67
69570;BME280;56781;42.292;23.146;2023-04-27T03:57:27;95428.09;;;6.16;73.68
69570;BME280;56781;42.292;23.146;2023-04-27T03:59:54;95430.03;;;6.00;73.30
69570;BME280;56781;42.292;23.146;2023-04-27T04:02:21;95420.22;;;5.90;75.84
69570;BME280;56781;42.292;23.146;2023-04-27T04:05:11;95433.75;;;5.99;73.56
69570;BME280;56781;42.292;23.146;2023-04-27T04:07:41;95438.50;;;6.02;75.32
69570;BME280;56781;42.292;23.146;2023-04-27T04:10:12;95422.59;;;5.92;76.54
69570;BME280;56781;42.292;23.146;2023-04-27T04:12:40;95429.41;;;6.13;72.67
69570;BME280;56781;42.292;23.146;2023-04-27T04:15:07;95446.13;;;6.24;71.01
69570;BME280;56781;42.292;23.146;2023-04-27T04:17:35;95432.06;;;6.13;72.97
69570;BME280;56781;42.292;23.146;2023-04-27T04:20:02;95443.50;;;6.19;73.15
69570;BME280;56781;42.292;23.146;2023-04-27T04:22:39;95451.13;;;6.36;72.11
69570;BME280;56781;42.292;23.146;2023-04-27T04:25:06;95445.22;;;6.44;70.66
69570;BME280;56781;42.292;23.146;2023-04-27T04:27:34;95458.69;;;6.58;72.10
69570;BME280;56781;42.292;23.146;2023-04-27T04:30:02;95449.66;;;6.54;72.17
69570;BME280;56781;42.292;23.146;2023-04-27T04:32:32;95457.47;;;6.40;72.46
69570;BME280;56781;42.292;23.146;2023-04-27T04:35:04;95440.50;;;6.31;67.62
69570;BME280;56781;42.292;23.146;2023-04-27T04:37:35;95447.88;;;6.44;68.42
69570;BME280;56781;42.292;23.146;2023-04-27T04:40:06;95472.97;;;6.72;67.59
69570;BME280;56781;42.292;23.146;2023-04-27T04:42:37;95452.84;;;6.56;67.42
69570;BME280;56781;42.292;23.146;2023-04-27T04:45:05;95447.69;;;6.35;67.90
69570;BME280;56781;42.292;23.146;2023-04-27T04:47:33;95461.97;;;6.44;72.07
69570;BME280;56781;42.292;23.146;2023-04-27T04:50:01;95463.34;;;6.32;72.73
69570;BME280;56781;42.292;23.146;2023-04-27T04:52:31;95447.75;;;6.15;69.52
69570;BME280;56781;42.292;23.146;2023-04-27T04:54:58;95473.97;;;6.37;69.34
69570;BME280;56781;42.292;23.146;2023-04-27T04:57:29;95473.94;;;6.42;72.88
69570;BME280;56781;42.292;23.146;2023-04-27T04:59:57;95463.72;;;6.15;71.90
69570;BME280;56781;42.292;23.146;2023-04-27T05:02:30;95478.31;;;6.22;70.13
69570;BME280;56781;42.292;23.146;2023-04-27T05:05:01;95501.50;;;6.61;68.20
69570;BME280;56781;42.292;23.146;2023-04-27T05:07:28;95483.44;;;6.53;71.23
69570;BME280;56781;42.292;23.146;2023-04-27T05:10:01;95494.41;;;6.47;70.25
69570;BME280;56781;42.292;23.146;2023-04-27T05:12:28;95506.72;;;6.82;69.55
69570;BME280;56781;42.292;23.146;2023-04-27T05:14:55;95508.44;;;7.02;66.02
69570;BME280;56781;42.292;23.146;2023-04-27T05:17:23;95490.72;;;6.87;67.78
69570;BME280;56781;42.292;23.146;2023-04-27T05:19:50;95491.50;;;7.22;64.75
69570;BME280;56781;42.292;23.146;2023-04-27T05:22:18;95484.81;;;7.24;65.08
69570;BME280;56781;42.292;23.146;2023-04-27T05:24:48;95496.69;;;7.37;69.55
69570;BME280;56781;42.292;23.146;2023-04-27T05:27:16;95508.50;;;7.26;68.94
69570;BME280;56781;42.292;23.146;2023-04-27T05:29:43;95518.34;;;6.91;65.56
69570;BME280;56781;42.292;23.146;2023-04-27T05:32:10;95519.75;;;6.78;68.20
69570;BME280;56781;42.292;23.146;2023-04-27T05:34:37;95493.50;;;6.61;69.82
69570;BME280;56781;42.292;23.146;2023-04-27T05:37:04;95505.28;;;6.95;70.72
69570;BME280;56781;42.292;23.146;2023-04-27T05:39:32;95510.69;;;7.19;71.55
69570;BME280;56781;42.292;23.146;2023-04-27T05:41:59;95506.06;;;7.00;66.38
69570;BME280;56781;42.292;23.146;2023-04-27T05:44:28;95505.97;;;7.10;69.92
69570;BME280;56781;42.292;23.146;2023-04-27T05:46:55;95503.19;;;7.26;67.67
69570;BME280;56781;42.292;23.146;2023-04-27T05:49:22;95486.28;;;7.12;67.47
69570;BME280;56781;42.292;23.146;2023-04-27T05:51:50;95521.78;;;7.31;65.28
69570;BME280;56781;42.292;23.146;2023-04-27T05:54:17;95520.81;;;7.51;67.36
69570;BME280;56781;42.292;23.146;2023-04-27T05:56:44;95510.13;;;7.22;65.24
69570;BME280;56781;42.292;23.146;2023-04-27T05:59:11;95479.88;;;7.13;67.37
69570;BME280;56781;42.292;23.146;2023-04-27T06:01:39;95513.16;;;7.44;66.35
69570;BME280;56781;42.292;23.146;2023-04-27T06:04:06;95504.03;;;7.50;65.36
69570;BME280;56781;42.292;23.146;2023-04-27T06:06:34;95503.34;;;7.69;65.96
69570;BME280;56781;42.292;23.146;2023-04-27T06:09:01;95495.13;;;8.13;67.21
69570;BME280;56781;42.292;23.146;2023-04-27T06:11:28;95495.03;;;7.99;61.35
69570;BME280;56781;42.292;23.146;2023-04-27T06:13:55;95514.38;;;8.34;61.51
69570;BME280;56781;42.292;23.146;2023-04-27T06:16:22;95520.09;;;8.47;61.24
69570;BME280;56781;42.292;23.146;2023-04-27T06:18:50;95518.44;;;8.27;59.68
69570;BME280;56781;42.292;23.146;2023-04-27T06:21:17;95497.28;;;8.35;62.98
69570;BME280;56781;42.292;23.146;2023-04-27T06:23:44;95510.34;;;8.37;65.33
69570;BME280;56781;42.292;23.146;2023-04-27T06:26:11;95501.50;;;7.93;62.86
69570;BME280;56781;42.292;23.146;2023-04-27T06:28:38;95495.50;;;8.07;65.79
69570;BME280;56781;42.292;23.146;2023-04-27T06:31:06;95494.88;;;8.39;65.43
69570;BME280;56781;42.292;23.146;2023-04-27T06:33:33;95492.88;;;8.50;63.04
69570;BME280;56781;42.292;23.146;2023-04-27T06:36:00;95492.66;;;9.03;59.86
69570;BME280;56781;42.292;23.146;2023-04-27T06:38:27;95515.22;;;8.54;65.22
69570;BME280;56781;42.292;23.146;2023-04-27T06:40:55;95500.88;;;8.50;63.66
69570;BME280;56781;42.292;23.146;2023-04-27T06:43:22;95468.28;;;8.53;64.15
69570;BME280;56781;42.292;23.146;2023-04-27T06:45:49;95477.72;;;8.64;63.07
69570;BME280;56781;42.292;23.146;2023-04-27T06:48:17;95472.81;;;8.71;62.71
69570;BME280;56781;42.292;23.146;2023-04-27T06:50:44;95491.34;;;8.62;60.99
69570;BME280;56781;42.292;23.146;2023-04-27T06:53:11;95476.63;;;8.65;64.23
69570;BME280;56781;42.292;23.146;2023-04-27T06:55:39;95470.00;;;8.81;62.57
69570;BME280;56781;42.292;23.146;2023-04-27T06:58:10;95486.66;;;8.73;64.81
69570;BME280;56781;42.292;23.146;2023-04-27T07:00:37;95476.13;;;8.63;63.24
69570;BME280;56781;42.292;23.146;2023-04-27T07:03:04;95471.03;;;8.85;60.68
69570;BME280;56781;42.292;23.146;2023-04-27T07:05:33;95473.09;;;9.40;59.77
69570;BME280;56781;42.292;23.146;2023-04-27T07:08:00;95489.94;;;9.54;61.11
69570;BME280;56781;42.292;23.146;2023-04-27T07:10:32;95464.41;;;10.73;58.30
69570;BME280;56781;42.292;23.146;2023-04-27T07:12:59;95467.91;;;9.90;58.20
69570;BME280;56781;42.292;23.146;2023-04-27T07:15:27;95485.97;;;10.90;54.36
69570;BME280;56781;42.292;23.146;2023-04-27T07:17:54;95467.59;;;11.20;58.80
69570;BME280;56781;42.292;23.146;2023-04-27T07:20:21;95472.88;;;10.38;55.79
69570;BME280;56781;42.292;23.146;2023-04-27T07:22:49;95463.66;;;9.75;56.60
69570;BME280;56781;42.292;23.146;2023-04-27T07:25:16;95461.59;;;10.00;59.97
69570;BME280;56781;42.292;23.146;2023-04-27T07:27:43;95475.38;;;9.93;56.16
69570;BME280;56781;42.292;23.146;2023-04-27T07:30:11;95455.44;;;10.41;57.42
69570;BME280;56781;42.292;23.146;2023-04-27T07:32:40;95453.16;;;9.65;58.32
69570;BME280;56781;42.292;23.146;2023-04-27T07:35:10;95480.47;;;9.62;56.78
69570;BME280;56781;42.292;23.146;2023-04-27T07:37:37;95462.38;;;9.26;60.79
69570;BME280;56781;42.292;23.146;2023-04-27T07:40:05;95443.63;;;8.80;59.97
69570;BME280;56781;42.292;23.146;2023-04-27T07:42:40;95454.44;;;9.21;61.47
69570;BME280;56781;42.292;23.146;2023-04-27T07:45:08;95455.78;;;9.38;60.34
69570;BME280;56781;42.292;23.146;2023-04-27T07:47:36;95471.66;;;10.58;59.97
69570;BME280;56781;42.292;23.146;2023-04-27T07:50:05;95452.09;;;11.62;58.60
69570;BME280;56781;42.292;23.146;2023-04-27T07:52:33;95454.38;;;11.01;55.48
69570;BME280;56781;42.292;23.146;2023-04-27T07:55:00;95478.44;;;10.56;57.88
69570;BME280;56781;42.292;23.146;2023-04-27T07:57:27;95480.88;;;10.66;57.11
69570;BME280;56781;42.292;23.146;2023-04-27T07:59:55;95463.75;;;12.28;56.83
69570;BME280;56781;42.292;23.146;2023-04-27T08:02:22;95476.38;;;11.34;56.91
69570;BME280;56781;42.292;23.146;2023-04-27T08:04:50;95465.00;;;10.70;55.44
69570;BME280;56781;42.292;23.146;2023-04-27T08:07:18;95484.56;;;10.93;56.71
69570;BME280;56781;42.292;23.146;2023-04-27T08:09:46;95491.84;;;11.15;56.17
69570;BME280;56781;42.292;23.146;2023-04-27T08:12:13;95463.94;;;11.38;54.77
69570;BME280;56781;42.292;23.146;2023-04-27T08:14:40;95469.13;;;10.53;54.59
69570;BME280;56781;42.292;23.146;2023-04-27T08:17:07;95488.34;;;10.92;55.38
69570;BME280;56781;42.292;23.146;2023-04-27T08:19:34;95485.97;;;10.90;56.74
69570;BME280;56781;42.292;23.146;2023-04-27T08:22:02;95470.72;;;10.40;56.99
69570;BME280;56781;42.292;23.146;2023-04-27T08:24:29;95482.19;;;10.41;56.84
69570;BME280;56781;42.292;23.146;2023-04-27T08:26:56;95491.94;;;11.09;56.74
69570;BME280;56781;42.292;23.146;2023-04-27T08:29:23;95463.94;;;10.93;58.04
69570;BME280;56781;42.292;23.146;2023-04-27T08:31:57;95465.81;;;11.91;56.47
69570;BME280;56781;42.292;23.146;2023-04-27T08:34:26;95469.81;;;11.40;54.09
69570;BME280;56781;42.292;23.146;2023-04-27T08:36:53;95482.44;;;10.81;56.70
69570;BME280;56781;42.292;23.146;2023-04-27T08:39:21;95473.25;;;10.96;57.59
69570;BME280;56781;42.292;23.146;2023-04-27T08:41:49;95494.78;;;11.27;55.37
69570;BME280;56781;42.292;23.146;2023-04-27T08:44:16;95474.34;;;10.72;55.88
69570;BME280;56781;42.292;23.146;2023-04-27T08:46:43;95490.97;;;10.69;58.39
69570;BME280;56781;42.292;23.146;2023-04-27T08:49:10;95462.44;;;10.64;57.14
69570;BME280;56781;42.292;23.146;2023-04-27T08:51:41;95455.31;;;11.19;59.51
69570;BME280;56781;42.292;23.146;2023-04-27T08:54:09;95495.06;;;11.03;56.21
69570;BME280;56781;42.292;23.146;2023-04-27T08:56:36;95487.53;;;11.81;59.03
69570;BME280;56781;42.292;23.146;2023-04-27T08:59:13;95456.97;;;12.39;54.31
69570;BME280;56781;42.292;23.146;2023-04-27T09:01:46;95472.50;;;12.03;55.59
69570;BME280;56781;42.292;23.146;2023-04-27T09:04:15;95472.66;;;12.55;53.76
69570;BME280;56781;42.292;23.146;2023-04-27T09:06:44;95476.78;;;11.50;50.33
69570;BME280;56781;42.292;23.146;2023-04-27T09:09:21;95475.81;;;11.46;54.73
69570;BME280;56781;42.292;23.146;2023-04-27T09:11:49;95488.75;;;11.75;54.92
69570;BME280;56781;42.292;23.146;2023-04-27T09:14:19;95461.88;;;11.66;51.97
69570;BME280;56781;42.292;23.146;2023-04-27T09:16:57;95474.03;;;11.86;55.96
69570;BME280;56781;42.292;23.146;2023-04-27T09:19:27;95474.44;;;11.48;52.16
69570;BME280;56781;42.292;23.146;2023-04-27T09:22:08;95445.78;;;11.13;53.10
69570;BME280;56781;42.292;23.146;2023-04-27T09:24:37;95474.41;;;12.59;57.49
69570;BME280;56781;42.292;23.146;2023-04-27T09:27:05;95465.72;;;12.62;51.42
69570;BME280;56781;42.292;23.146;2023-04-27T09:29:37;95486.38;;;12.05;51.96
69570;BME280;56781;42.292;23.146;2023-04-27T09:32:17;95472.53;;;11.80;49.00
69570;BME280;56781;42.292;23.146;2023-04-27T09:34:46;95484.78;;;11.41;54.38
69570;BME280;56781;42.292;23.146;2023-04-27T09:37:14;95462.69;;;11.67;54.53
69570;BME280;56781;42.292;23.146;2023-04-27T09:39:42;95443.41;;;11.87;54.46
69570;BME280;56781;42.292;23.146;2023-04-27T09:42:11;95471.28;;;12.09;51.04
69570;BME280;56781;42.292;23.146;2023-04-27T09:44:38;95450.50;;;11.61;52.15
69570;BME280;56781;42.292;23.146;2023-04-27T09:47:06;95453.25;;;12.01;54.78
69570;BME280;56781;42.292;23.146;2023-04-27T09:49:33;95433.34;;;12.68;53.38
69570;BME280;56781;42.292;23.146;2023-04-27T09:52:00;95448.97;;;12.74;53.83
69570;BME280;56781;42.292;23.146;2023-04-27T09:54:31;95467.00;;;13.00;53.51
69570;BME280;56781;42.292;23.146;2023-04-27T09:57:25;95440.63;;;12.93;52.12
69570;BME280;56781;42.292;23.146;2023-04-27T10:00:11;95450.97;;;12.42;49.20
69570;BME280;56781;42.292;23.146;2023-04-27T10:03:00;95434.88;;;12.34;45.67
69570;BME280;56781;42.292;23.146;2023-04-27T10:08:37;95423.81;;;13.40;47.23
69570;BME280;56781;42.292;23.146;2023-04-27T10:11:17;95454.34;;;12.92;46.25
69570;BME280;56781;42.292;23.146;2023-04-27T10:13:52;95432.06;;;13.00;47.47
69570;BME280;56781;42.292;23.146;2023-04-27T10:16:21;95429.63;;;12.20;48.88
69570;BME280;56781;42.292;23.146;2023-04-27T10:18:53;95457.84;;;13.01;51.81
69570;BME280;56781;42.292;23.146;2023-04-27T10:21:21;95441.09;;;13.86;47.93
69570;BME280;56781;42.292;23.146;2023-04-27T10:23:50;95428.25;;;15.01;48.37
69570;BME280;56781;42.292;23.146;2023-04-27T10:26:24;95451.19;;;15.07;44.51
69570;BME280;56781;42.292;23.146;2023-04-27T10:28:57;95451.66;;;13.18;43.63
69570;BME280;56781;42.292;23.146;2023-04-27T10:31:28;95446.91;;;14.65;45.55
69570;BME280;56781;42.292;23.146;2023-04-27T10:34:06;95424.81;;;15.46;36.66
69570;BME280;56781;42.292;23.146;2023-04-27T10:36:37;95430.97;;;15.14;41.99
69570;BME280;56781;42.292;23.146;2023-04-27T10:39:20;95431.06;;;13.65;40.62
69570;BME280;56781;42.292;23.146;2023-04-27T10:42:01;95441.25;;;13.34;39.54
69570;BME280;56781;42.292;23.146;2023-04-27T10:44:30;95441.31;;;14.40;39.66
69570;BME280;56781;42.292;23.146;2023-04-27T10:47:11;95437.94;;;13.84;40.16
69570;BME280;56781;42.292;23.146;2023-04-27T10:49:39;95410.97;;;14.60;38.72
69570;BME280;56781;42.292;23.146;2023-04-27T10:52:06;95443.88;;;13.68;42.19
69570;BME280;56781;42.292;23.146;2023-04-27T10:54:34;95446.88;;;11.88;48.04
69570;BME280;56781;42.292;23.146;2023-04-27T10:57:08;95429.00;;;12.23;48.19
69570;BME280;56781;42.292;23.146;2023-04-27T10:59:53;95421.63;;;12.46;44.43
69570;BME280;56781;42.292;23.146;2023-04-27T11:02:26;95433.34;;;12.94;46.90
69570;BME280;56781;42.292;23.146;2023-04-27T11:04:54;95424.47;;;12.32;42.19
69570;BME280;56781;42.292;23.146;2023-04-27T11:07:23;95437.63;;;12.95;44.83
69570;BME280;56781;42.292;23.146;2023-04-27T11:09:51;95435.25;;;13.28;44.69
69570;BME280;56781;42.292;23.146;2023-04-27T11:12:18;95435.84;;;13.16;45.23
69570;BME280;56781;42.292;23.146;2023-04-27T11:14:47;95437.50;;;13.82;43.60
69570;BME280;56781;42.292;23.146;2023-04-27T11:17:14;95433.97;;;13.90;44.15
69570;BME280;56781;42.292;23.146;2023-04-27T11:19:45;95438.44;;;14.15;45.30
69570;BME280;56781;42.292;23.146;2023-04-27T11:22:14;95428.97;;;14.09;42.65
69570;BME280;56781;42.292;23.146;2023-04-27T11:24:48;95413.63;;;13.71;40.77
69570;BME280;56781;42.292;23.146;2023-04-27T11:27:16;95438.97;;;13.62;42.92
69570;BME280;56781;42.292;23.146;2023-04-27T11:29:43;95427.56;;;13.65;45.49
69570;BME280;56781;42.292;23.146;2023-04-27T11:32:21;95439.78;;;14.01;47.19
69570;BME280;56781;42.292;23.146;2023-04-27T11:34:50;95443.03;;;13.68;42.27
69570;BME280;56781;42.292;23.146;2023-04-27T11:37:26;95424.00;;;13.26;44.10
69570;BME280;56781;42.292;23.146;2023-04-27T11:39:53;95426.75;;;13.73;45.11
69570;BME280;56781;42.292;23.146;2023-04-27T11:42:26;95418.25;;;14.30;44.88
69570;BME280;56781;42.292;23.146;2023-04-27T11:44:58;95414.31;;;14.49;41.79
69570;BME280;56781;42.292;23.146;2023-04-27T11:47:30;95438.31;;;13.73;45.42
69570;BME280;56781;42.292;23.146;2023-04-27T11:50:01;95424.03;;;12.82;43.06
69570;BME280;56781;42.292;23.146;2023-04-27T11:54:56;95443.53;;;14.08;44.06
69570;BME280;56781;42.292;23.146;2023-04-27T11:57:27;95427.72;;;13.68;43.79
69570;BME280;56781;42.292;23.146;2023-04-27T11:59:56;95440.38;;;13.59;41.00
69570;BME280;56781;42.292;23.146;2023-04-27T12:02:26;95427.66;;;13.86;44.09
69570;BME280;56781;42.292;23.146;2023-04-27T12:04:54;95419.19;;;14.05;44.38
69570;BME280;56781;42.292;23.146;2023-04-27T12:07:21;95445.63;;;13.56;42.68
69570;BME280;56781;42.292;23.146;2023-04-27T12:09:49;95429.81;;;14.01;40.85
69570;BME280;56781;42.292;23.146;2023-04-27T12:12:16;95435.22;;;14.31;40.23
69570;BME280;56781;42.292;23.146;2023-04-27T12:14:49;95421.41;;;14.32;44.18
69570;BME280;56781;42.292;23.146;2023-04-27T12:17:17;95439.47;;;14.32;46.84
69570;BME280;56781;42.292;23.146;2023-04-27T12:19:44;95447.50;;;14.70;40.95
69570;BME280;56781;42.292;23.146;2023-04-27T12:22:11;95429.22;;;14.76;38.22
69570;BME280;56781;42.292;23.146;2023-04-27T12:24:38;95438.75;;;14.52;41.35
69570;BME280;56781;42.292;23.146;2023-04-27T12:27:05;95418.63;;;14.50;41.61
69570;BME280;56781;42.292;23.146;2023-04-27T12:29:33;95424.38;;;14.10;42.92
69570;BME280;56781;42.292;23.146;2023-04-27T12:32:00;95433.84;;;13.78;42.50
69570;BME280;56781;42.292;23.146;2023-04-27T12:34:27;95426.38;;;14.22;41.48
69570;BME280;56781;42.292;23.146;2023-04-27T12:36:54;95427.06;;;13.71;43.05
69570;BME280;56781;42.292;23.146;2023-04-27T12:39:22;95422.16;;;13.73;44.66
69570;BME280;56781;42.292;23.146;2023-04-27T12:41:52;95405.19;;;13.17;44.80
69570;BME280;56781;42.292;23.146;2023-04-27T12:44:19;95432.34;;;13.50;45.52
69570;BME280;56781;42.292;23.146;2023-04-27T12:46:47;95431.13;;;13.86;43.98
69570;BME280;56781;42.292;23.146;2023-04-27T12:49:15;95408.41;;;13.66;47.22
69570;BME280;56781;42.292;23.146;2023-04-27T12:51:42;95438.25;;;13.26;44.06
69570;BME280;56781;42.292;23.146;2023-04-27T12:54:10;95418.81;;;12.95;44.45
69570;BME280;56781;42.292;23.146;2023-04-27T12:56:39;95425.03;;;13.68;43.15
69570;BME280;56781;42.292;23.146;2023-04-27T12:59:07;95423.31;;;14.32;44.09
69570;BME280;56781;42.292;23.146;2023-04-27T13:01:35;95415.53;;;14.09;42.39
69570;BME280;56781;42.292;23.146;2023-04-27T13:04:03;95406.56;;;13.41;43.27
69570;BME280;56781;42.292;23.146;2023-04-27T13:06:31;95432.16;;;13.64;42.22
69570;BME280;56781;42.292;23.146;2023-04-27T13:08:59;95432.53;;;13.37;46.04